Saint-Eustache, Canada
Current Conditions -  °F | °C
As of 5:00 PM on Tuesday 27 Jan 2015 (Local Time) from CYMX Reporting Station
Broken Clouds Broken Clouds  
Wind Chill:   Ceiling: 19000
Heat Index: 16°   Visibility: 45mi
Dew Point: -8°   Wind: 8mph
Humidity: 35%   Direction: 350°N
Pressure: 30.03"   Gusts: NA
Location:  45.57°N, 73.9°W
Report Text: CYMX 272200Z 35007KT 45SM FEW160 BKN190 M09/M22 A3003 RMK AC1AC6 SLP175
Loading
Personal Weather Stations






























Interactive Weather Map New forecast layout! Learn more

10-Day Weather Forecast

Advertisements
Track Severe Weather on mobile